Terminal Aerodrome Forecast
Issued by NWS

Home | Current Version | Previous Version | Text Only | Print | Product List | Glossary On
Versions: 1 2 3 4 5 6 7 8 9 10 11 12 13
898
FTUS45 KVEF 210539
TAFBIH
TAF
KBIH 210539Z 2106/2206 16010KT P6SM SCT120
     FM210700 VRB06KT P6SM SCT120
     FM211800 16012G20KT P6SM SCT120 BKN150
     FM220300 16010KT P6SM SCT120 BKN250=

USA.gov is the U.S. government's official web portal to all federal, state and local government web resources and services.